createdAt,value
2022-12-31T00:01:43.041Z,122.6
2022-12-31T00:06:45.125Z,100
2022-12-31T00:11:47.153Z,118.1
2022-12-31T00:16:49.337Z,106.5
2022-12-31T00:21:51.506Z,125.3
2022-12-31T00:26:53.699Z,101.4
2022-12-31T00:31:55.892Z,87.3
2022-12-31T00:36:58.050Z,93.6
2022-12-31T00:42:00.174Z,106.4
2022-12-31T00:47:02.228Z,98.8
2022-12-31T00:52:04.295Z,95.5
2022-12-31T00:57:06.426Z,90
2022-12-31T01:02:08.763Z,95.6
2022-12-31T01:07:11.834Z,109.2
2022-12-31T01:12:14.002Z,96.5
2022-12-31T01:17:16.124Z,107.1
2022-12-31T01:22:18.139Z,100.5
2022-12-31T01:27:20.838Z,92.4
2022-12-31T01:32:23.692Z,88.8
2022-12-31T01:37:25.798Z,92.8
2022-12-31T01:42:27.978Z,91.9
2022-12-31T01:47:30.015Z,86.9
2022-12-31T01:52:32.084Z,87.3
2022-12-31T01:57:34.292Z,90
2022-12-31T02:02:36.628Z,84.6
2022-12-31T02:07:39.419Z,87.1
2022-12-31T02:12:41.949Z,85.1
2022-12-31T02:17:44.065Z,93
2022-12-31T02:22:46.144Z,83.4
2022-12-31T02:27:48.729Z,82.4
2022-12-31T02:32:50.943Z,85.9
2022-12-31T02:37:52.988Z,83.9
2022-12-31T02:42:55.821Z,81.1
2022-12-31T02:47:58.352Z,81.6
2022-12-31T02:53:00.374Z,83.7
2022-12-31T02:58:02.436Z,80.1
2022-12-31T03:03:04.667Z,80.4
2022-12-31T03:08:06.911Z,77.6
2022-12-31T03:13:09.030Z,76.8
2022-12-31T03:18:11.075Z,76.4
2022-12-31T03:23:13.155Z,71.5
2022-12-31T03:28:15.440Z,70.7
2022-12-31T03:33:17.629Z,67.8
2022-12-31T03:38:19.730Z,68.3
2022-12-31T03:43:21.862Z,67.7
2022-12-31T03:48:24.618Z,64.8
2022-12-31T03:53:26.686Z,61.8
2022-12-31T03:58:28.951Z,60.6
2022-12-31T04:03:31.151Z,63.3
2022-12-31T04:08:33.343Z,59.4
2022-12-31T04:13:35.534Z,57.8
2022-12-31T04:18:37.569Z,56.5
2022-12-31T04:23:39.779Z,55.9
2022-12-31T04:28:41.828Z,54.2
2022-12-31T04:33:44.099Z,53.2
2022-12-31T04:38:46.128Z,53.3
2022-12-31T04:43:48.344Z,50
2022-12-31T04:48:50.377Z,52.2
2022-12-31T04:53:52.805Z,49.5
2022-12-31T04:58:55.014Z,47
2022-12-31T05:03:57.618Z,49.7
2022-12-31T05:08:59.788Z,54.9
2022-12-31T05:14:02.615Z,46.8
2022-12-31T05:19:04.678Z,46.1
2022-12-31T05:24:06.898Z,44.7
2022-12-31T05:29:09.101Z,47.8
2022-12-31T05:34:11.531Z,46.3
2022-12-31T05:39:13.743Z,45.5
2022-12-31T05:44:15.819Z,43.7
2022-12-31T05:49:17.824Z,66.5
2022-12-31T05:54:19.923Z,42.2
2022-12-31T05:59:22.256Z,39.2
2022-12-31T06:04:30.634Z,38.1
2022-12-31T06:09:32.665Z,55.4
2022-12-31T06:14:34.965Z,39
2022-12-31T06:19:36.757Z,40.4
2022-12-31T06:24:38.789Z,42.5
2022-12-31T06:29:40.876Z,43.9
2022-12-31T06:34:43.011Z,45.1
2022-12-31T06:39:45.040Z,45.9
2022-12-31T06:44:47.124Z,43.4
2022-12-31T06:49:49.166Z,44.1
2022-12-31T06:54:51.776Z,42.4
2022-12-31T06:59:53.780Z,38.5
2022-12-31T07:04:55.966Z,33.9
2022-12-31T07:09:57.997Z,31.8
2022-12-31T07:15:00.158Z,43.1
2022-12-31T07:20:02.271Z,38.8
2022-12-31T07:25:04.273Z,40.9
2022-12-31T07:30:06.398Z,40.3
2022-12-31T07:35:09.164Z,40.4
2022-12-31T07:40:11.271Z,36
2022-12-31T07:45:13.406Z,33.9
2022-12-31T07:50:16.055Z,32.2
2022-12-31T07:55:18.412Z,27.5
2022-12-31T08:00:20.673Z,26
2022-12-31T08:05:22.983Z,26.1
2022-12-31T08:10:25.014Z,24.5
2022-12-31T08:15:30.477Z,25.9
2022-12-31T08:20:33.188Z,24.9
2022-12-31T08:25:35.298Z,28.9
2022-12-31T08:30:37.476Z,26.5
2022-12-31T08:35:40.037Z,28
2022-12-31T08:40:42.119Z,27.7
2022-12-31T08:45:44.804Z,27.4
2022-12-31T08:50:47.312Z,25.3
2022-12-31T08:55:49.443Z,25
2022-12-31T09:00:51.392Z,29.6
2022-12-31T09:05:53.750Z,25.6
2022-12-31T09:10:55.726Z,22.3
2022-12-31T09:15:57.813Z,20.5
2022-12-31T09:20:59.854Z,20.8
2022-12-31T09:26:01.873Z,23.5
2022-12-31T09:31:03.960Z,39.8
2022-12-31T09:36:06.116Z,53
2022-12-31T09:41:08.175Z,28.6
2022-12-31T09:46:10.462Z,31.5
2022-12-31T09:51:14.411Z,47.8
2022-12-31T09:56:20.375Z,32.2
2022-12-31T10:01:22.926Z,32
2022-12-31T10:06:25.512Z,31.9
2022-12-31T10:11:27.487Z,28.2
2022-12-31T10:16:29.466Z,24.9
2022-12-31T10:21:31.500Z,17.9
2022-12-31T10:26:33.491Z,12.8
2022-12-31T10:31:35.563Z,12
2022-12-31T10:36:37.673Z,11.7
2022-12-31T10:41:39.806Z,12.2
2022-12-31T10:46:41.774Z,12.3
2022-12-31T10:51:43.957Z,12.4
2022-12-31T10:56:45.947Z,13.3
2022-12-31T11:01:48.185Z,12.9
2022-12-31T11:06:50.782Z,12.3
2022-12-31T11:11:52.866Z,10.6
2022-12-31T11:16:54.882Z,12.6
2022-12-31T11:21:57.185Z,11.8
2022-12-31T11:26:59.158Z,11.2
2022-12-31T11:32:01.123Z,11.5
2022-12-31T11:37:03.317Z,11.1
2022-12-31T11:42:05.277Z,10.6
2022-12-31T11:47:07.222Z,10.8
2022-12-31T11:52:09.181Z,9.5
2022-12-31T11:57:11.206Z,8.4
2022-12-31T12:02:13.539Z,9.6
2022-12-31T12:07:15.714Z,9.3
2022-12-31T12:12:17.826Z,8.5
2022-12-31T12:17:19.725Z,10
2022-12-31T12:22:21.724Z,9.4
2022-12-31T12:27:23.686Z,9.3
2022-12-31T12:32:25.624Z,9.3
2022-12-31T12:37:27.644Z,8.4
2022-12-31T12:42:29.967Z,7.5
2022-12-31T12:47:32.668Z,6.5
2022-12-31T12:52:34.733Z,7.6
2022-12-31T12:57:36.783Z,7.3
2022-12-31T13:02:39.366Z,8
2022-12-31T13:07:41.815Z,6.7
2022-12-31T13:13:21.866Z,8.6
2022-12-31T13:17:51.068Z,8.1
2022-12-31T13:22:54.195Z,6.8
2022-12-31T13:28:00.868Z,6.8
2022-12-31T13:33:02.864Z,6.6
2022-12-31T13:38:05.930Z,5.7
2022-12-31T13:43:08.318Z,7
2022-12-31T13:48:10.335Z,7.8
2022-12-31T13:53:12.292Z,6.8
2022-12-31T13:58:14.197Z,5.7
2022-12-31T14:03:16.322Z,6.1
2022-12-31T14:08:18.617Z,6.1
2022-12-31T14:13:20.671Z,6.6
2022-12-31T14:18:22.900Z,6.6
2022-12-31T14:23:24.910Z,6.5
2022-12-31T14:28:26.913Z,7.2
2022-12-31T14:33:29.160Z,7
2022-12-31T14:38:31.325Z,7.5
2022-12-31T14:43:33.324Z,6
2022-12-31T14:48:35.375Z,15
2022-12-31T14:53:35.895Z,6.6
2022-12-31T14:58:37.906Z,7.3
2022-12-31T15:03:44.933Z,6.8
2022-12-31T15:08:48.159Z,6.3
2022-12-31T15:13:52.201Z,7.1
2022-12-31T15:18:54.718Z,7.2
2022-12-31T15:23:57.260Z,8.1
2022-12-31T15:28:59.254Z,7.3
2022-12-31T15:34:01.920Z,7.6
2022-12-31T15:39:04.410Z,8.3
2022-12-31T15:44:06.988Z,7
2022-12-31T15:49:15.272Z,7
2022-12-31T15:54:18.185Z,8.9
2022-12-31T15:59:20.358Z,8.6
2022-12-31T16:04:24.394Z,23.7
2022-12-31T16:09:24.898Z,11.4
2022-12-31T16:14:27.065Z,10.6
2022-12-31T16:19:29.538Z,12.1
2022-12-31T16:24:31.661Z,14.8
2022-12-31T16:29:40.481Z,14.7
2022-12-31T16:34:45.112Z,12.1
2022-12-31T16:39:47.899Z,12.9
2022-12-31T16:44:52.858Z,18.3
2022-12-31T16:49:54.956Z,12.5
2022-12-31T16:54:57.129Z,18.6
2022-12-31T16:59:59.398Z,19.9
2022-12-31T17:05:01.538Z,19.9
2022-12-31T17:10:03.572Z,17.1
2022-12-31T17:15:05.625Z,17.2
2022-12-31T17:20:07.710Z,18.3
2022-12-31T17:25:09.753Z,18.2
2022-12-31T17:30:12.634Z,18.4
2022-12-31T17:35:14.714Z,20.3
2022-12-31T17:40:49.640Z,17.7
2022-12-31T17:45:23.935Z,17.2
2022-12-31T17:50:26.480Z,15.5
2022-12-31T17:55:28.610Z,14.1
2022-12-31T18:00:30.672Z,30.4
2022-12-31T18:05:33.214Z,31.8
2022-12-31T18:10:35.371Z,24.1
2022-12-31T18:15:37.641Z,17
2022-12-31T18:20:39.682Z,17.4
2022-12-31T18:30:51.154Z,18.7
2022-12-31T18:36:10.354Z,16.8
2022-12-31T18:41:03.185Z,19.9
2022-12-31T18:46:05.363Z,29.1
2022-12-31T18:51:07.821Z,29.3
2022-12-31T18:56:09.841Z,16.8
2022-12-31T19:01:11.972Z,14.6
2022-12-31T19:06:15.031Z,11.4
2022-12-31T19:11:17.292Z,12.6
2022-12-31T19:16:19.370Z,12
2022-12-31T19:21:21.748Z,11.4
2022-12-31T19:26:23.773Z,10.7
2022-12-31T19:31:26.071Z,14.3
2022-12-31T19:36:28.764Z,13.6
2022-12-31T19:41:31.001Z,11.6
2022-12-31T19:46:33.115Z,11.4
2022-12-31T19:51:35.071Z,14
2022-12-31T19:56:37.164Z,12.1
2022-12-31T20:01:39.265Z,15
2022-12-31T20:06:42.648Z,15.7
2022-12-31T20:11:44.789Z,15.7
2022-12-31T20:16:47.007Z,14.8
2022-12-31T20:21:50.153Z,14
2022-12-31T20:26:52.271Z,13.5
2022-12-31T20:31:54.914Z,19.7
2022-12-31T20:36:57.312Z,13.7
2022-12-31T20:41:59.415Z,11.5
2022-12-31T20:47:01.529Z,11.4
2022-12-31T20:52:03.871Z,9.2
2022-12-31T20:57:06.235Z,12.1
2022-12-31T21:02:20.834Z,18.5
2022-12-31T21:07:15.566Z,11
2022-12-31T21:12:17.834Z,11.2
2022-12-31T21:17:20.051Z,14.2
2022-12-31T21:22:22.117Z,12.4
2022-12-31T21:27:24.283Z,13.6
2022-12-31T21:32:26.488Z,20.1
2022-12-31T21:37:57.204Z,12.5
2022-12-31T21:42:32.402Z,12.5
2022-12-31T21:47:37.410Z,10.3
2022-12-31T21:52:38.994Z,11.9
2022-12-31T21:57:59.458Z,10.3
2022-12-31T22:02:43.392Z,10
2022-12-31T22:07:52.422Z,9.3
2022-12-31T22:12:54.421Z,9.2
2022-12-31T22:17:57.341Z,8.8
2022-12-31T22:22:59.412Z,8.5
2022-12-31T22:28:36.559Z,8.5
2022-12-31T22:33:11.313Z,7.7
2022-12-31T22:38:13.256Z,8.5
2022-12-31T22:43:15.348Z,9
2022-12-31T22:48:17.698Z,9
2022-12-31T22:53:19.648Z,8.6
2022-12-31T22:58:21.931Z,10.8
2022-12-31T23:03:23.964Z,11.8
2022-12-31T23:08:26.216Z,11
2022-12-31T23:13:28.292Z,14
2022-12-31T23:18:30.393Z,16.8
2022-12-31T23:23:32.373Z,29.1
2022-12-31T23:28:34.333Z,26.8
2022-12-31T23:33:36.321Z,20.5
2022-12-31T23:38:38.373Z,17.8
2022-12-31T23:43:40.664Z,15.8
2022-12-31T23:48:42.651Z,12.5
2022-12-31T23:53:44.697Z,11.3
2022-12-31T23:58:46.704Z,9.9
